ESCF/LPI METAR and TAF weather

Enter ICAO airport designator
Station Type Date Time Source
ESCF METAR 2018/07/21 03:50 UTC NOAA

ESCF 210350Z AUTO 25006KT 9999 NCD 16/14 Q1009


Station Type Date Time Source
ESCF Decoded METAR 2018/07/21 03:50 UTC NOAA

Linkoping / Malmen, Sweden (ESCF) 58-24N 015-31E 117M
Jul 20, 2018 - 11:50 PM EDT / 2018.07.21 0350 UTC
Wind: from the WSW (250 degrees) at 7 MPH (6 KT):0
Visibility: greater than 7 mile(s):0
Temperature: 60 F (16 C)
Dew Point: 57 F (14 C)
Relative Humidity: 87%
Pressure (altimeter): 29.80 in. Hg (1009 hPa)
ob: ESCF 210350Z AUTO 25006KT 9999 NCD 16/14 Q1009
cycle: 4

Station Type Date Time Source
ESCF TAF UTC NOAA

Error!


Example: see airport list